sensor_id;sensor_type;location;lat;lon;timestamp;pressure;altitude;pressure_sealevel;temperature;humidity
27712;BME280;2377;51.734;8.950;2022-08-02T00:01:58;98204.59;;;16.14;76.30
27712;BME280;2377;51.734;8.950;2022-08-02T00:04:25;98205.59;;;16.13;76.48
27712;BME280;2377;51.734;8.950;2022-08-02T00:06:52;98200.16;;;16.10;76.43
27712;BME280;2377;51.734;8.950;2022-08-02T00:09:19;98204.00;;;16.07;76.56
27712;BME280;2377;51.734;8.950;2022-08-02T00:11:46;98196.72;;;16.04;76.31
27712;BME280;2377;51.734;8.950;2022-08-02T00:14:15;98207.50;;;16.01;76.53
27712;BME280;2377;51.734;8.950;2022-08-02T00:16:42;98209.53;;;15.99;76.45
27712;BME280;2377;51.734;8.950;2022-08-02T00:19:09;98212.38;;;15.97;76.40
27712;BME280;2377;51.734;8.950;2022-08-02T00:21:36;98211.03;;;15.95;76.79
27712;BME280;2377;51.734;8.950;2022-08-02T00:24:04;98206.59;;;15.90;76.89
27712;BME280;2377;51.734;8.950;2022-08-02T00:26:31;98214.56;;;15.89;76.70
27712;BME280;2377;51.734;8.950;2022-08-02T00:28:58;98215.34;;;15.89;76.87
27712;BME280;2377;51.734;8.950;2022-08-02T00:31:26;98217.38;;;15.87;77.00
27712;BME280;2377;51.734;8.950;2022-08-02T00:33:53;98221.75;;;15.87;77.01
27712;BME280;2377;51.734;8.950;2022-08-02T00:36:21;98221.44;;;15.83;77.33
27712;BME280;2377;51.734;8.950;2022-08-02T00:38:48;98221.69;;;15.81;77.51
27712;BME280;2377;51.734;8.950;2022-08-02T00:41:18;98223.22;;;15.82;77.83
27712;BME280;2377;51.734;8.950;2022-08-02T00:43:47;98217.84;;;15.84;78.19
27712;BME280;2377;51.734;8.950;2022-08-02T00:46:15;98211.91;;;15.83;78.45
27712;BME280;2377;51.734;8.950;2022-08-02T00:48:45;98208.31;;;15.84;78.78
27712;BME280;2377;51.734;8.950;2022-08-02T00:51:13;98209.88;;;15.85;79.25
27712;BME280;2377;51.734;8.950;2022-08-02T00:53:41;98198.53;;;15.87;79.47
27712;BME280;2377;51.734;8.950;2022-08-02T00:56:08;98200.34;;;15.86;79.54
27712;BME280;2377;51.734;8.950;2022-08-02T00:58:35;98202.16;;;15.85;79.94
27712;BME280;2377;51.734;8.950;2022-08-02T01:01:02;98196.94;;;15.80;79.81
27712;BME280;2377;51.734;8.950;2022-08-02T01:03:29;98196.59;;;15.77;80.01
27712;BME280;2377;51.734;8.950;2022-08-02T01:05:58;98205.03;;;15.72;79.80
27712;BME280;2377;51.734;8.950;2022-08-02T01:08:25;98210.41;;;15.71;79.96
27712;BME280;2377;51.734;8.950;2022-08-02T01:10:52;98208.06;;;15.69;79.73
27712;BME280;2377;51.734;8.950;2022-08-02T01:13:20;98204.94;;;15.67;79.95
27712;BME280;2377;51.734;8.950;2022-08-02T01:15:57;98202.84;;;15.64;79.73
27712;BME280;2377;51.734;8.950;2022-08-02T01:18:31;98200.66;;;15.56;79.18
27712;BME280;2377;51.734;8.950;2022-08-02T01:21:25;98205.16;;;15.49;78.97
27712;BME280;2377;51.734;8.950;2022-08-02T01:24:15;98204.06;;;15.44;78.98
27712;BME280;2377;51.734;8.950;2022-08-02T01:26:51;98204.53;;;15.41;79.06
27712;BME280;2377;51.734;8.950;2022-08-02T01:29:29;98204.00;;;15.39;78.76
27712;BME280;2377;51.734;8.950;2022-08-02T01:32:04;98205.47;;;15.35;78.78
27712;BME280;2377;51.734;8.950;2022-08-02T01:34:36;98209.06;;;15.34;78.83
27712;BME280;2377;51.734;8.950;2022-08-02T01:37:12;98203.38;;;15.32;78.84
27712;BME280;2377;51.734;8.950;2022-08-02T01:39:43;98204.38;;;15.31;79.09
27712;BME280;2377;51.734;8.950;2022-08-02T01:42:14;98203.84;;;15.29;79.16
27712;BME280;2377;51.734;8.950;2022-08-02T01:44:45;98209.97;;;15.28;79.14
27712;BME280;2377;51.734;8.950;2022-08-02T01:47:16;98206.84;;;15.26;79.37
27712;BME280;2377;51.734;8.950;2022-08-02T01:49:48;98203.75;;;15.24;79.41
27712;BME280;2377;51.734;8.950;2022-08-02T01:52:18;98211.47;;;15.24;79.27
27712;BME280;2377;51.734;8.950;2022-08-02T01:54:56;98211.16;;;15.20;79.31
27712;BME280;2377;51.734;8.950;2022-08-02T01:57:30;98204.69;;;15.18;79.52
27712;BME280;2377;51.734;8.950;2022-08-02T02:00:05;98205.44;;;15.18;79.48
27712;BME280;2377;51.734;8.950;2022-08-02T02:02:36;98208.28;;;15.17;79.65
27712;BME280;2377;51.734;8.950;2022-08-02T02:05:10;98207.25;;;15.18;79.67
27712;BME280;2377;51.734;8.950;2022-08-02T02:07:39;98209.81;;;15.18;80.09
27712;BME280;2377;51.734;8.950;2022-08-02T02:10:11;98209.81;;;15.18;80.09
27712;BME280;2377;51.734;8.950;2022-08-02T02:12:42;98200.78;;;15.15;80.37
27712;BME280;2377;51.734;8.950;2022-08-02T02:15:12;98199.44;;;15.13;80.69
27712;BME280;2377;51.734;8.950;2022-08-02T02:17:43;98203.72;;;15.07;81.18
27712;BME280;2377;51.734;8.950;2022-08-02T02:20:14;98198.03;;;15.05;80.83
27712;BME280;2377;51.734;8.950;2022-08-02T02:22:43;98200.06;;;15.03;80.34
27712;BME280;2377;51.734;8.950;2022-08-02T02:25:12;98203.41;;;15.04;79.95
27712;BME280;2377;51.734;8.950;2022-08-02T02:27:47;98193.56;;;15.00;79.78
27712;BME280;2377;51.734;8.950;2022-08-02T02:30:17;98199.72;;;14.99;79.92
27712;BME280;2377;51.734;8.950;2022-08-02T02:32:48;98195.81;;;14.97;80.02
27712;BME280;2377;51.734;8.950;2022-08-02T02:35:18;98184.19;;;14.94;80.40
27712;BME280;2377;51.734;8.950;2022-08-02T02:37:48;98181.28;;;14.91;80.55
27712;BME280;2377;51.734;8.950;2022-08-02T02:40:19;98180.50;;;14.90;81.09
27712;BME280;2377;51.734;8.950;2022-08-02T02:42:48;98180.41;;;14.85;81.01
27712;BME280;2377;51.734;8.950;2022-08-02T02:45:20;98186.03;;;14.82;81.76
27712;BME280;2377;51.734;8.950;2022-08-02T02:47:49;98172.63;;;14.80;81.11
27712;BME280;2377;51.734;8.950;2022-08-02T02:50:16;98171.03;;;14.79;80.77
27712;BME280;2377;51.734;8.950;2022-08-02T02:52:46;98165.03;;;14.73;80.64
27712;BME280;2377;51.734;8.950;2022-08-02T02:55:16;98163.69;;;14.71;80.51
27712;BME280;2377;51.734;8.950;2022-08-02T02:57:43;98157.22;;;14.68;81.44
27712;BME280;2377;51.734;8.950;2022-08-02T03:00:13;98164.16;;;14.68;81.33
27712;BME280;2377;51.734;8.950;2022-08-02T03:02:43;98160.00;;;14.67;81.92
27712;BME280;2377;51.734;8.950;2022-08-02T03:05:12;98163.84;;;14.64;82.18
27712;BME280;2377;51.734;8.950;2022-08-02T03:07:39;98157.13;;;14.63;81.78
27712;BME280;2377;51.734;8.950;2022-08-02T03:10:08;98168.66;;;14.61;81.44
27712;BME280;2377;51.734;8.950;2022-08-02T03:12:36;98160.63;;;14.57;80.92
27712;BME280;2377;51.734;8.950;2022-08-02T03:15:06;98160.28;;;14.53;80.75
27712;BME280;2377;51.734;8.950;2022-08-02T03:17:43;98159.94;;;14.50;80.98
27712;BME280;2377;51.734;8.950;2022-08-02T03:20:13;98172.47;;;14.46;80.97
27712;BME280;2377;51.734;8.950;2022-08-02T03:22:42;98156.72;;;14.43;81.14
27712;BME280;2377;51.734;8.950;2022-08-02T03:25:10;98155.94;;;14.42;80.75
27712;BME280;2377;51.734;8.950;2022-08-02T03:27:38;98155.94;;;14.42;80.85
27712;BME280;2377;51.734;8.950;2022-08-02T03:30:09;98149.22;;;14.41;81.04
27712;BME280;2377;51.734;8.950;2022-08-02T03:32:39;98146.66;;;14.41;81.15
27712;BME280;2377;51.734;8.950;2022-08-02T03:35:14;98150.94;;;14.35;81.14
27712;BME280;2377;51.734;8.950;2022-08-02T03:37:42;98158.75;;;14.29;81.55
27712;BME280;2377;51.734;8.950;2022-08-02T03:40:11;98151.81;;;14.29;81.71
27712;BME280;2377;51.734;8.950;2022-08-02T03:42:39;98155.41;;;14.28;81.51
27712;BME280;2377;51.734;8.950;2022-08-02T03:45:10;98159.78;;;14.28;81.05
27712;BME280;2377;51.734;8.950;2022-08-02T03:47:39;98154.63;;;14.28;81.21
27712;BME280;2377;51.734;8.950;2022-08-02T03:50:11;98158.75;;;14.29;80.89
27712;BME280;2377;51.734;8.950;2022-08-02T03:52:41;98154.19;;;14.31;81.18
27712;BME280;2377;51.734;8.950;2022-08-02T03:55:08;98161.34;;;14.29;81.40
27712;BME280;2377;51.734;8.950;2022-08-02T03:57:37;98156.19;;;14.29;81.37
27712;BME280;2377;51.734;8.950;2022-08-02T04:00:06;98159.31;;;14.31;81.21
27712;BME280;2377;51.734;8.950;2022-08-02T04:02:35;98166.00;;;14.32;81.53
27712;BME280;2377;51.734;8.950;2022-08-02T04:05:03;98169.13;;;14.34;81.49
27712;BME280;2377;51.734;8.950;2022-08-02T04:07:31;98172.72;;;14.33;81.67
27712;BME280;2377;51.734;8.950;2022-08-02T04:09:58;98168.38;;;14.33;81.83
27712;BME280;2377;51.734;8.950;2022-08-02T04:12:25;98170.94;;;14.33;81.83
27712;BME280;2377;51.734;8.950;2022-08-02T04:14:53;98177.41;;;14.36;82.56
27712;BME280;2377;51.734;8.950;2022-08-02T04:17:22;98172.81;;;14.38;82.21
27712;BME280;2377;51.734;8.950;2022-08-02T04:19:54;98165.13;;;14.38;82.35
27712;BME280;2377;51.734;8.950;2022-08-02T04:22:39;98159.97;;;14.38;82.44
27712;BME280;2377;51.734;8.950;2022-08-02T04:25:10;98164.44;;;14.43;82.06
27712;BME280;2377;51.734;8.950;2022-08-02T04:27:39;98171.38;;;14.42;82.79
27712;BME280;2377;51.734;8.950;2022-08-02T04:30:08;98170.38;;;14.31;83.67
27712;BME280;2377;51.734;8.950;2022-08-02T04:32:37;98169.59;;;14.31;83.51
27712;BME280;2377;51.734;8.950;2022-08-02T04:35:06;98166.34;;;14.35;83.30
27712;BME280;2377;51.734;8.950;2022-08-02T04:37:36;98169.78;;;14.41;83.93
27712;BME280;2377;51.734;8.950;2022-08-02T04:40:09;98170.59;;;14.42;84.14
27712;BME280;2377;51.734;8.950;2022-08-02T04:42:38;98167.22;;;14.41;84.03
27712;BME280;2377;51.734;8.950;2022-08-02T04:45:07;98178.06;;;14.43;83.81
27712;BME280;2377;51.734;8.950;2022-08-02T04:47:34;98179.66;;;14.44;84.31
27712;BME280;2377;51.734;8.950;2022-08-02T04:50:02;98181.53;;;14.49;84.16
27712;BME280;2377;51.734;8.950;2022-08-02T04:52:29;98192.13;;;14.52;84.28
27712;BME280;2377;51.734;8.950;2022-08-02T04:54:56;98187.34;;;14.56;84.22
27712;BME280;2377;51.734;8.950;2022-08-02T04:57:25;98190.03;;;14.61;84.10
27712;BME280;2377;51.734;8.950;2022-08-02T05:00:10;98190.34;;;14.65;84.28
27712;BME280;2377;51.734;8.950;2022-08-02T05:02:37;98183.16;;;14.67;84.63
27712;BME280;2377;51.734;8.950;2022-08-02T05:05:06;98188.88;;;14.69;84.32
27712;BME280;2377;51.734;8.950;2022-08-02T05:07:33;98181.94;;;14.69;84.58
27712;BME280;2377;51.734;8.950;2022-08-02T05:10:00;98182.75;;;14.70;84.81
27712;BME280;2377;51.734;8.950;2022-08-02T05:12:28;98184.28;;;14.71;84.92
27712;BME280;2377;51.734;8.950;2022-08-02T05:14:55;98183.25;;;14.72;85.00
27712;BME280;2377;51.734;8.950;2022-08-02T05:17:23;98184.59;;;14.74;84.97
27712;BME280;2377;51.734;8.950;2022-08-02T05:19:50;98183.38;;;14.77;85.05
27712;BME280;2377;51.734;8.950;2022-08-02T05:22:17;98186.03;;;14.82;84.60
27712;BME280;2377;51.734;8.950;2022-08-02T05:24:44;98184.78;;;14.85;84.85
27712;BME280;2377;51.734;8.950;2022-08-02T05:27:11;98190.25;;;14.88;84.79
27712;BME280;2377;51.734;8.950;2022-08-02T05:29:39;98185.44;;;14.92;85.05
27712;BME280;2377;51.734;8.950;2022-08-02T05:32:06;98190.88;;;14.95;84.75
27712;BME280;2377;51.734;8.950;2022-08-02T05:34:33;98197.16;;;14.99;84.65
27712;BME280;2377;51.734;8.950;2022-08-02T05:37:01;98197.22;;;15.05;84.89
27712;BME280;2377;51.734;8.950;2022-08-02T05:39:28;98194.50;;;15.11;84.82
27712;BME280;2377;51.734;8.950;2022-08-02T05:41:55;98190.25;;;15.17;85.23
27712;BME280;2377;51.734;8.950;2022-08-02T05:44:22;98193.69;;;15.22;84.94
27712;BME280;2377;51.734;8.950;2022-08-02T05:46:50;98191.97;;;15.28;84.92
27712;BME280;2377;51.734;8.950;2022-08-02T05:49:17;98186.91;;;15.33;85.27
27712;BME280;2377;51.734;8.950;2022-08-02T05:51:55;98193.13;;;15.37;85.60
27712;BME280;2377;51.734;8.950;2022-08-02T05:54:35;98198.38;;;15.42;85.95
27712;BME280;2377;51.734;8.950;2022-08-02T05:57:12;98196.41;;;15.50;86.04
27712;BME280;2377;51.734;8.950;2022-08-02T05:59:57;98197.59;;;15.59;86.68
27712;BME280;2377;51.734;8.950;2022-08-02T06:02:35;98205.94;;;15.66;87.18
27712;BME280;2377;51.734;8.950;2022-08-02T06:05:11;98204.81;;;15.74;87.89
27712;BME280;2377;51.734;8.950;2022-08-02T06:07:41;98211.38;;;15.81;87.46
27712;BME280;2377;51.734;8.950;2022-08-02T06:10:11;98205.34;;;15.93;87.62
27712;BME280;2377;51.734;8.950;2022-08-02T06:12:47;98206.50;;;16.02;87.95
27712;BME280;2377;51.734;8.950;2022-08-02T06:15:17;98215.91;;;16.13;87.68
27712;BME280;2377;51.734;8.950;2022-08-02T06:17:46;98210.34;;;16.21;88.26
27712;BME280;2377;51.734;8.950;2022-08-02T06:20:14;98221.84;;;16.31;88.63
27712;BME280;2377;51.734;8.950;2022-08-02T06:22:43;98218.06;;;16.38;89.85
27712;BME280;2377;51.734;8.950;2022-08-02T06:25:11;98215.06;;;16.46;90.36
27712;BME280;2377;51.734;8.950;2022-08-02T06:27:39;98217.22;;;16.55;90.71
27712;BME280;2377;51.734;8.950;2022-08-02T06:30:09;98220.94;;;16.64;91.44
27712;BME280;2377;51.734;8.950;2022-08-02T06:32:36;98218.72;;;16.73;91.78
27712;BME280;2377;51.734;8.950;2022-08-02T06:35:06;98212.13;;;16.82;91.80
27712;BME280;2377;51.734;8.950;2022-08-02T06:37:37;98212.47;;;16.90;91.86
27712;BME280;2377;51.734;8.950;2022-08-02T06:40:13;98219.25;;;16.97;92.30
27712;BME280;2377;51.734;8.950;2022-08-02T06:43:05;98220.91;;;17.08;92.24
27712;BME280;2377;51.734;8.950;2022-08-02T06:45:36;98231.31;;;17.18;91.98
27712;BME280;2377;51.734;8.950;2022-08-02T06:48:04;98235.03;;;17.27;91.78
27712;BME280;2377;51.734;8.950;2022-08-02T06:50:34;98235.38;;;17.36;91.98
27712;BME280;2377;51.734;8.950;2022-08-02T06:53:03;98227.94;;;17.45;92.06
27712;BME280;2377;51.734;8.950;2022-08-02T06:55:30;98220.28;;;17.55;92.03
27712;BME280;2377;51.734;8.950;2022-08-02T06:57:58;98215.69;;;17.62;91.61
27712;BME280;2377;51.734;8.950;2022-08-02T07:00:25;98214.72;;;17.73;91.11
27712;BME280;2377;51.734;8.950;2022-08-02T07:02:53;98216.66;;;17.88;91.06
27712;BME280;2377;51.734;8.950;2022-08-02T07:05:20;98230.72;;;18.03;91.85
27712;BME280;2377;51.734;8.950;2022-08-02T07:07:49;98231.31;;;18.20;92.27
27712;BME280;2377;51.734;8.950;2022-08-02T07:10:16;98219.22;;;18.36;92.25
27712;BME280;2377;51.734;8.950;2022-08-02T07:12:43;98211.03;;;18.54;92.31
27712;BME280;2377;51.734;8.950;2022-08-02T07:15:10;98202.53;;;18.74;92.53
27712;BME280;2377;51.734;8.950;2022-08-02T07:17:38;98191.72;;;18.88;91.37
27712;BME280;2377;51.734;8.950;2022-08-02T07:20:07;98194.84;;;19.05;90.57
27712;BME280;2377;51.734;8.950;2022-08-02T07:22:35;98196.44;;;19.21;89.36
27712;BME280;2377;51.734;8.950;2022-08-02T07:25:05;98196.69;;;19.40;87.46
27712;BME280;2377;51.734;8.950;2022-08-02T07:27:33;98200.28;;;19.65;86.64
27712;BME280;2377;51.734;8.950;2022-08-02T07:30:00;98196.41;;;19.88;83.74
27712;BME280;2377;51.734;8.950;2022-08-02T07:32:30;98189.59;;;20.08;83.37
27712;BME280;2377;51.734;8.950;2022-08-02T07:34:59;98186.69;;;20.30;83.25
27712;BME280;2377;51.734;8.950;2022-08-02T07:37:29;98184.25;;;20.48;82.12
27712;BME280;2377;51.734;8.950;2022-08-02T07:39:56;98181.59;;;20.64;81.58
27712;BME280;2377;51.734;8.950;2022-08-02T07:42:25;98191.09;;;20.84;80.95
27712;BME280;2377;51.734;8.950;2022-08-02T07:44:54;98187.38;;;20.95;80.36
27712;BME280;2377;51.734;8.950;2022-08-02T07:47:21;98197.91;;;21.14;80.23
27712;BME280;2377;51.734;8.950;2022-08-02T07:49:49;98192.34;;;21.26;79.03
27712;BME280;2377;51.734;8.950;2022-08-02T07:52:16;98209.69;;;21.41;77.47
27712;BME280;2377;51.734;8.950;2022-08-02T07:54:43;98202.91;;;21.45;74.57
27712;BME280;2377;51.734;8.950;2022-08-02T07:57:10;98205.03;;;21.32;73.95
27712;BME280;2377;51.734;8.950;2022-08-02T07:59:38;98207.94;;;21.26;74.18
27712;BME280;2377;51.734;8.950;2022-08-02T08:02:05;98203.59;;;21.21;72.89
27712;BME280;2377;51.734;8.950;2022-08-02T08:04:32;98204.66;;;21.15;73.85
27712;BME280;2377;51.734;8.950;2022-08-02T08:06:59;98195.16;;;21.35;73.69
27712;BME280;2377;51.734;8.950;2022-08-02T08:09:26;98203.84;;;21.54;70.92
27712;BME280;2377;51.734;8.950;2022-08-02T08:11:53;98203.06;;;21.53;70.27
27712;BME280;2377;51.734;8.950;2022-08-02T08:14:20;98207.19;;;21.60;68.36
27712;BME280;2377;51.734;8.950;2022-08-02T08:16:49;98199.91;;;21.86;68.33
27712;BME280;2377;51.734;8.950;2022-08-02T08:19:16;98199.34;;;22.13;65.69
27712;BME280;2377;51.734;8.950;2022-08-02T08:21:43;98203.16;;;22.26;64.03
27712;BME280;2377;51.734;8.950;2022-08-02T08:24:10;98204.69;;;22.51;64.65
27712;BME280;2377;51.734;8.950;2022-08-02T08:26:37;98198.00;;;22.64;64.26
27712;BME280;2377;51.734;8.950;2022-08-02T08:29:04;98202.69;;;22.80;64.97
27712;BME280;2377;51.734;8.950;2022-08-02T08:31:32;98200.63;;;23.02;64.23
27712;BME280;2377;51.734;8.950;2022-08-02T08:34:01;98205.38;;;23.13;63.05
27712;BME280;2377;51.734;8.950;2022-08-02T08:36:28;98204.09;;;23.30;64.38
27712;BME280;2377;51.734;8.950;2022-08-02T08:38:55;98204.66;;;23.27;59.00
27712;BME280;2377;51.734;8.950;2022-08-02T08:41:23;98203.41;;;23.24;59.79
27712;BME280;2377;51.734;8.950;2022-08-02T08:43:50;98199.44;;;23.27;60.60
27712;BME280;2377;51.734;8.950;2022-08-02T08:46:25;98196.97;;;23.35;60.88
27712;BME280;2377;51.734;8.950;2022-08-02T08:49:00;98197.78;;;23.50;59.36
27712;BME280;2377;51.734;8.950;2022-08-02T08:51:35;98191.47;;;23.51;58.94
27712;BME280;2377;51.734;8.950;2022-08-02T08:54:05;98190.94;;;23.68;58.29
27712;BME280;2377;51.734;8.950;2022-08-02T08:56:35;98197.75;;;23.82;57.83
27712;BME280;2377;51.734;8.950;2022-08-02T08:59:03;98191.47;;;23.97;57.31
27712;BME280;2377;51.734;8.950;2022-08-02T09:01:31;98198.22;;;24.12;58.23
27712;BME280;2377;51.734;8.950;2022-08-02T09:04:00;98192.63;;;24.19;58.03
27712;BME280;2377;51.734;8.950;2022-08-02T09:06:28;98188.91;;;24.34;58.84
27712;BME280;2377;51.734;8.950;2022-08-02T09:08:55;98193.38;;;24.47;58.68
27712;BME280;2377;51.734;8.950;2022-08-02T09:11:24;98193.94;;;24.58;57.95
27712;BME280;2377;51.734;8.950;2022-08-02T09:13:55;98201.84;;;24.66;58.47
27712;BME280;2377;51.734;8.950;2022-08-02T09:16:32;98200.44;;;24.83;57.69
27712;BME280;2377;51.734;8.950;2022-08-02T09:19:15;98194.56;;;25.00;55.53
27712;BME280;2377;51.734;8.950;2022-08-02T09:21:43;98191.84;;;25.05;55.10
27712;BME280;2377;51.734;8.950;2022-08-02T09:24:18;98197.59;;;25.16;54.18
27712;BME280;2377;51.734;8.950;2022-08-02T09:26:48;98190.72;;;25.20;51.92
27712;BME280;2377;51.734;8.950;2022-08-02T09:29:16;98196.50;;;25.30;51.63
27712;BME280;2377;51.734;8.950;2022-08-02T09:31:44;98192.53;;;25.42;52.47
27712;BME280;2377;51.734;8.950;2022-08-02T09:34:12;98194.94;;;25.61;51.54
27712;BME280;2377;51.734;8.950;2022-08-02T09:36:42;98194.22;;;25.69;51.10
27712;BME280;2377;51.734;8.950;2022-08-02T09:39:12;98195.19;;;25.73;50.28
27712;BME280;2377;51.734;8.950;2022-08-02T09:41:43;98190.22;;;25.71;51.02
27712;BME280;2377;51.734;8.950;2022-08-02T09:44:12;98186.84;;;25.71;51.32
27712;BME280;2377;51.734;8.950;2022-08-02T09:46:43;98191.31;;;25.70;49.15
27712;BME280;2377;51.734;8.950;2022-08-02T09:49:14;98188.09;;;25.73;49.97
27712;BME280;2377;51.734;8.950;2022-08-02T09:51:49;98181.94;;;25.78;48.63
27712;BME280;2377;51.734;8.950;2022-08-02T09:54:20;98200.78;;;25.89;47.59
27712;BME280;2377;51.734;8.950;2022-08-02T09:56:49;98196.19;;;25.94;49.79
27712;BME280;2377;51.734;8.950;2022-08-02T09:59:19;98192.66;;;25.99;48.12
27712;BME280;2377;51.734;8.950;2022-08-02T10:01:48;98177.28;;;26.06;48.74
27712;BME280;2377;51.734;8.950;2022-08-02T10:04:20;98185.28;;;26.10;48.93
27712;BME280;2377;51.734;8.950;2022-08-02T10:06:50;98177.63;;;26.22;49.41
27712;BME280;2377;51.734;8.950;2022-08-02T10:09:19;98184.28;;;26.37;49.21
27712;BME280;2377;51.734;8.950;2022-08-02T10:11:47;98176.25;;;26.51;48.52
27712;BME280;2377;51.734;8.950;2022-08-02T10:14:15;98178.75;;;26.56;48.85
27712;BME280;2377;51.734;8.950;2022-08-02T10:16:43;98184.31;;;26.63;48.47
27712;BME280;2377;51.734;8.950;2022-08-02T10:19:10;98179.06;;;26.63;48.45
27712;BME280;2377;51.734;8.950;2022-08-02T10:21:44;98175.22;;;26.61;47.37
27712;BME280;2377;51.734;8.950;2022-08-02T10:24:15;98173.66;;;26.68;47.85
27712;BME280;2377;51.734;8.950;2022-08-02T10:26:45;98171.81;;;26.77;47.62
27712;BME280;2377;51.734;8.950;2022-08-02T10:29:17;98178.59;;;26.70;47.54
27712;BME280;2377;51.734;8.950;2022-08-02T10:31:53;98172.75;;;26.73;46.42
27712;BME280;2377;51.734;8.950;2022-08-02T10:34:36;98171.97;;;26.81;45.52
27712;BME280;2377;51.734;8.950;2022-08-02T10:37:10;98168.88;;;26.70;45.57
27712;BME280;2377;51.734;8.950;2022-08-02T10:39:39;98169.50;;;26.67;45.49
27712;BME280;2377;51.734;8.950;2022-08-02T10:42:07;98170.09;;;26.47;46.93
27712;BME280;2377;51.734;8.950;2022-08-02T10:44:35;98167.47;;;26.47;47.21
27712;BME280;2377;51.734;8.950;2022-08-02T10:47:23;98156.06;;;26.34;45.99
27712;BME280;2377;51.734;8.950;2022-08-02T10:49:53;98162.69;;;26.49;47.57
27712;BME280;2377;51.734;8.950;2022-08-02T10:52:23;98159.47;;;26.69;48.53
27712;BME280;2377;51.734;8.950;2022-08-02T10:54:55;98156.22;;;26.72;47.56
27712;BME280;2377;51.734;8.950;2022-08-02T10:57:25;98159.91;;;26.71;48.42
27712;BME280;2377;51.734;8.950;2022-08-02T11:00:00;98157.47;;;26.66;47.25
27712;BME280;2377;51.734;8.950;2022-08-02T11:02:40;98163.63;;;26.70;46.37
27712;BME280;2377;51.734;8.950;2022-08-02T11:05:14;98158.38;;;26.70;49.46
27712;BME280;2377;51.734;8.950;2022-08-02T11:07:45;98164.06;;;26.90;49.23
27712;BME280;2377;51.734;8.950;2022-08-02T11:10:35;98167.94;;;27.01;47.49
27712;BME280;2377;51.734;8.950;2022-08-02T11:13:07;98166.06;;;27.10;47.73
27712;BME280;2377;51.734;8.950;2022-08-02T11:15:57;98161.91;;;26.92;46.67
27712;BME280;2377;51.734;8.950;2022-08-02T11:19:03;98175.16;;;27.04;47.39
27712;BME280;2377;51.734;8.950;2022-08-02T11:21:34;98173.34;;;27.05;47.69
27712;BME280;2377;51.734;8.950;2022-08-02T11:24:28;98162.34;;;27.11;49.18
27712;BME280;2377;51.734;8.950;2022-08-02T11:26:57;98164.22;;;27.19;47.79
27712;BME280;2377;51.734;8.950;2022-08-02T11:29:34;98164.50;;;27.27;47.51
27712;BME280;2377;51.734;8.950;2022-08-02T11:32:02;98163.09;;;27.38;47.33
27712;BME280;2377;51.734;8.950;2022-08-02T11:34:31;98166.19;;;27.40;47.43
27712;BME280;2377;51.734;8.950;2022-08-02T11:36:59;98166.59;;;27.42;47.24
27712;BME280;2377;51.734;8.950;2022-08-02T11:39:28;98158.41;;;27.52;47.19
27712;BME280;2377;51.734;8.950;2022-08-02T11:41:58;98157.94;;;27.50;46.49
27712;BME280;2377;51.734;8.950;2022-08-02T11:44:28;98155.75;;;27.61;48.13
27712;BME280;2377;51.734;8.950;2022-08-02T11:46:57;98154.38;;;27.55;45.05
27712;BME280;2377;51.734;8.950;2022-08-02T11:49:25;98149.41;;;27.62;46.54
27712;BME280;2377;51.734;8.950;2022-08-02T11:51:58;98143.88;;;27.55;43.98
27712;BME280;2377;51.734;8.950;2022-08-02T11:54:31;98148.97;;;27.51;46.86
27712;BME280;2377;51.734;8.950;2022-08-02T11:57:14;98149.69;;;27.60;46.46
27712;BME280;2377;51.734;8.950;2022-08-02T11:59:43;98150.44;;;27.70;46.64
27712;BME280;2377;51.734;8.950;2022-08-02T12:02:11;98145.94;;;27.70;46.83
27712;BME280;2377;51.734;8.950;2022-08-02T12:04:40;98149.97;;;27.68;45.58
27712;BME280;2377;51.734;8.950;2022-08-02T12:07:08;98146.47;;;27.64;46.13
27712;BME280;2377;51.734;8.950;2022-08-02T12:09:36;98140.56;;;27.67;44.65
27712;BME280;2377;51.734;8.950;2022-08-02T12:12:04;98142.88;;;27.68;45.14
27712;BME280;2377;51.734;8.950;2022-08-02T12:14:40;98147.81;;;27.70;45.25
27712;BME280;2377;51.734;8.950;2022-08-02T12:17:08;98149.03;;;27.72;45.69
27712;BME280;2377;51.734;8.950;2022-08-02T12:19:54;98137.56;;;27.77;45.47
27712;BME280;2377;51.734;8.950;2022-08-02T12:22:25;98140.50;;;27.84;45.67
27712;BME280;2377;51.734;8.950;2022-08-02T12:24:55;98146.66;;;27.88;45.12
27712;BME280;2377;51.734;8.950;2022-08-02T12:27:29;98140.91;;;27.95;43.01
27712;BME280;2377;51.734;8.950;2022-08-02T12:30:07;98137.69;;;27.89;43.45
27712;BME280;2377;51.734;8.950;2022-08-02T14:10:25;98068.09;;;28.16;45.01
27712;BME280;2377;51.734;8.950;2022-08-02T14:12:52;98071.03;;;28.15;43.89
27712;BME280;2377;51.734;8.950;2022-08-02T14:15:20;98065.84;;;28.27;44.33
27712;BME280;2377;51.734;8.950;2022-08-02T14:17:47;98062.88;;;28.29;44.64
27712;BME280;2377;51.734;8.950;2022-08-02T14:20:14;98061.28;;;28.36;45.37
27712;BME280;2377;51.734;8.950;2022-08-02T14:22:41;98055.63;;;28.47;43.33
27712;BME280;2377;51.734;8.950;2022-08-02T14:25:09;98056.53;;;28.51;44.30
27712;BME280;2377;51.734;8.950;2022-08-02T14:27:37;98059.16;;;28.51;44.04
27712;BME280;2377;51.734;8.950;2022-08-02T14:30:06;98061.78;;;28.51;44.52
27712;BME280;2377;51.734;8.950;2022-08-02T14:32:33;98054.53;;;28.48;43.58
27712;BME280;2377;51.734;8.950;2022-08-02T14:35:00;98061.06;;;28.41;44.40
27712;BME280;2377;51.734;8.950;2022-08-02T14:37:28;98058.50;;;28.33;42.83
27712;BME280;2377;51.734;8.950;2022-08-02T14:39:55;98057.69;;;28.20;43.61
27712;BME280;2377;51.734;8.950;2022-08-02T14:42:22;98050.69;;;28.24;44.09
27712;BME280;2377;51.734;8.950;2022-08-02T14:44:50;98041.63;;;28.34;43.95
27712;BME280;2377;51.734;8.950;2022-08-02T14:47:17;98040.56;;;28.35;44.27
27712;BME280;2377;51.734;8.950;2022-08-02T14:49:44;98050.66;;;28.45;43.61
27712;BME280;2377;51.734;8.950;2022-08-02T14:52:11;98048.19;;;28.49;43.37
27712;BME280;2377;51.734;8.950;2022-08-02T14:54:39;98042.72;;;28.54;43.16
27712;BME280;2377;51.734;8.950;2022-08-02T14:57:08;98048.66;;;28.63;42.92
27712;BME280;2377;51.734;8.950;2022-08-02T14:59:35;98042.97;;;28.73;43.18
27712;BME280;2377;51.734;8.950;2022-08-02T15:02:04;98039.06;;;28.79;42.89
27712;BME280;2377;51.734;8.950;2022-08-02T15:04:31;98044.75;;;28.81;42.45